KACB/ACB METAR and TAF weather

Enter ICAO airport designator
Station Type Date Time Source
KACB METAR 2023/02/05 13:35 UTC NOAA

KACB 051335Z AUTO 00000KT 10SM OVC021 00/M02 A2973 RMK AO2 T00001016


Station Type Date Time Source
KACB Decoded METAR 2023/02/05 13:35 UTC NOAA

Bellaire, Antrim County Airport, MI, United States (KACB) 44-59-18N 085-11-54W
Feb 05, 2023 - 08:35 AM EST / 2023.02.05 1335 UTC
Wind: Calm:0
Visibility: 10 mile(s):0
Sky conditions: overcast
Temperature: 32.0 F (0.0 C)
Dew Point: 29.1 F (-1.6 C)
Relative Humidity: 88%
Pressure (altimeter): 29.73 in. Hg (1006 hPa)
ob: KACB 051335Z AUTO 00000KT 10SM OVC021 00/M02 A2973 RMK AO2 T00001016
cycle: 13

Station Type Date Time Source
KACB TAF UTC NOAA

Error!

Example: see airport list